Time;durP1;ratioP1;P1;durP2;ratioP2;P2;SDS_P1;SDS_P2;PMS_P1;PMS_P2;Temp;Humidity;BMP_temperature;BMP_pressure;BME280_temperature;BME280_humidity;BME280_pressure;Samples;Min_cycle;Max_cycle;Signal;HPM_P1;HPM_P2
2021/11/11 00:00:25;;;;;;;;;;;;;;;14.86;72.75;102079.63;1049985;28;808;-62
2021/11/11 00:01:14;;;;;;;;;;;;;;;14.87;72.48;102085.81;1049867;28;1187;-62
2021/11/11 00:02:03;;;;;;;;;;;;;;;14.87;72.30;102078.63;1049913;28;1566;-62
2021/11/11 00:02:51;;;;;;;;;;;;;;;14.86;72.50;102076.94;1050778;28;896;-62
2021/11/11 00:03:40;;;;;;;;;;;;;;;14.86;72.42;102081.44;1050790;28;901;-62
2021/11/11 00:04:29;;;;;;;;;;;;;;;14.86;72.91;102074.25;1050668;28;950;-62
2021/11/11 00:05:18;;;;;;;;;;;;;;;14.86;72.80;102082.31;1050729;28;846;-62
2021/11/11 00:06:07;;;;;;;;;;;;;;;14.86;72.19;102079.63;1050708;28;1583;-62
2021/11/11 00:07:00;;;;;;;;;;;;;;;14.86;72.79;102076.09;1050679;28;731;-62
2021/11/11 00:07:48;;;;;;;;;;;;;;;14.88;72.66;102079.50;1050752;28;1390;-62
2021/11/11 00:08:37;;;;;;;;;;;;;;;14.87;72.60;102075.94;1050683;28;707;-62
2021/11/11 00:09:27;;;;;;;;;;;;;;;14.87;72.25;102080.47;1050691;28;899;-62
2021/11/11 00:10:16;;;;;;;;;;;;;;;14.86;72.41;102068.88;1050814;28;1656;-62
2021/11/11 00:11:05;;;;;;;;;;;;;;;14.87;72.68;102078.63;1054660;28;780;-62
2021/11/11 00:11:54;;;;;;;;;;;;;;;14.86;72.21;102070.72;1054902;28;1660;-62
2021/11/11 00:12:43;;;;;;;;;;;;;;;14.85;72.73;102067.16;1054995;28;872;-62
2021/11/11 00:13:32;;;;;;;;;;;;;;;14.85;72.64;102072.53;1054934;28;950;-62
2021/11/11 00:14:21;;;;;;;;;;;;;;;14.85;72.39;102064.47;1050831;28;826;-60
2021/11/11 00:15:10;;;;;;;;;;;;;;;14.85;72.65;102061.81;1050734;28;809;-60
2021/11/11 00:15:58;;;;;;;;;;;;;;;14.85;72.95;102067.16;1050573;28;1549;-61
2021/11/11 00:16:48;;;;;;;;;;;;;;;14.86;72.25;102068.88;1050776;28;878;-61
2021/11/11 00:17:36;;;;;;;;;;;;;;;14.87;72.24;102061.66;1050655;28;784;-61
2021/11/11 00:18:25;;;;;;;;;;;;;;;14.87;72.21;102065.22;1050745;28;800;-60
2021/11/11 00:19:14;;;;;;;;;;;;;;;14.87;72.76;102067.91;1050717;28;1016;-61
2021/11/11 00:20:03;;;;;;;;;;;;;;;14.87;72.13;102064.34;1050674;28;1633;-61
2021/11/11 00:20:52;;;;;;;;;;;;;;;14.85;72.86;102069.84;1050770;28;888;-61
2021/11/11 00:21:41;;;;;;;;;;;;;;;14.85;72.32;102060.94;1050543;28;888;-61
2021/11/11 00:22:30;;;;;;;;;;;;;;;14.86;72.39;102068.88;1050637;28;900;-60
2021/11/11 00:23:19;;;;;;;;;;;;;;;14.86;73.07;102070.72;1050767;28;859;-60
2021/11/11 00:24:07;;;;;;;;;;;;;;;14.86;72.99;102079.63;1050579;28;1373;-60
2021/11/11 00:24:56;;;;;;;;;;;;;;;14.87;72.53;102075.94;1050732;28;735;-61
2021/11/11 00:25:45;;;;;;;;;;;;;;;14.88;72.90;102066.94;1050479;28;1619;-61
2021/11/11 00:26:34;;;;;;;;;;;;;;;14.87;72.44;102081.31;1050668;28;813;-60
2021/11/11 00:27:23;;;;;;;;;;;;;;;14.86;72.28;102079.63;1050790;28;1090;-60
2021/11/11 00:28:12;;;;;;;;;;;;;;;14.87;73.16;102081.31;1050535;28;1473;-61
2021/11/11 00:29:01;;;;;;;;;;;;;;;14.87;72.88;102084.00;1050556;28;1902;-61
2021/11/11 00:29:50;;;;;;;;;;;;;;;14.87;72.73;102084.00;1050553;28;1393;-61
2021/11/11 00:30:38;;;;;;;;;;;;;;;14.86;72.96;102087.69;1050683;28;815;-61
2021/11/11 00:31:27;;;;;;;;;;;;;;;14.85;72.97;102091.31;1050644;28;714;-61
2021/11/11 00:32:16;;;;;;;;;;;;;;;14.86;72.46;102089.50;1050565;28;887;-60
2021/11/11 00:33:05;;;;;;;;;;;;;;;14.85;72.73;102085.94;1050654;28;762;-60
2021/11/11 00:33:54;;;;;;;;;;;;;;;14.85;72.41;102085.94;1050615;28;705;-60
2021/11/11 00:34:44;;;;;;;;;;;;;;;14.86;72.91;102095.72;1050716;28;837;-60
2021/11/11 00:35:33;;;;;;;;;;;;;;;14.85;73.01;102093.13;1050602;28;613;-60
2021/11/11 00:36:22;;;;;;;;;;;;;;;14.85;73.03;102096.69;1050635;28;845;-60
2021/11/11 00:37:11;;;;;;;;;;;;;;;14.85;72.52;102096.69;1050608;28;748;-60
2021/11/11 00:38:00;;;;;;;;;;;;;;;14.85;72.21;102094.00;1052964;28;1542;-60
2021/11/11 00:38:49;;;;;;;;;;;;;;;14.84;72.37;102097.66;1054813;28;836;-60
2021/11/11 00:39:38;;;;;;;;;;;;;;;14.86;72.38;102098.41;1054768;28;811;-60
2021/11/11 00:40:27;;;;;;;;;;;;;;;14.86;72.42;102094.88;1050532;28;1669;-61
2021/11/11 00:41:15;;;;;;;;;;;;;;;14.87;72.87;102101.94;1050702;28;857;-61
2021/11/11 00:42:04;;;;;;;;;;;;;;;14.84;72.62;102097.66;1053700;28;1545;-60
2021/11/11 00:42:53;;;;;;;;;;;;;;;14.85;72.94;102095.81;1054853;28;735;-60
2021/11/11 00:43:42;;;;;;;;;;;;;;;14.84;72.41;102094.97;1054898;28;932;-60
2021/11/11 00:44:31;;;;;;;;;;;;;;;14.84;72.46;102092.28;1054744;28;864;-60
2021/11/11 00:45:20;;;;;;;;;;;;;;;14.85;72.40;102098.50;1054639;28;1282;-60
2021/11/11 00:46:09;;;;;;;;;;;;;;;14.85;72.80;102101.19;1051073;28;1580;-60
2021/11/11 00:46:58;;;;;;;;;;;;;;;14.84;72.43;102092.28;1050525;28;767;-60
2021/11/11 00:47:48;;;;;;;;;;;;;;;14.84;72.99;102092.28;1051043;28;1450;-60
2021/11/11 00:48:37;;;;;;;;;;;;;;;14.84;72.59;102088.72;1054742;28;868;-60
2021/11/11 00:49:26;;;;;;;;;;;;;;;14.85;72.92;102085.94;1054665;28;1432;-60
2021/11/11 00:50:15;;;;;;;;;;;;;;;14.85;72.87;102087.78;1054877;28;832;-60
2021/11/11 00:51:04;;;;;;;;;;;;;;;14.84;73.32;102092.28;1054705;28;871;-60
2021/11/11 00:51:53;;;;;;;;;;;;;;;14.83;72.83;102090.56;1054645;28;1490;-60
2021/11/11 00:52:42;;;;;;;;;;;;;;;14.84;72.90;102086.06;1054729;28;736;-60
2021/11/11 00:53:30;;;;;;;;;;;;;;;14.84;72.90;102086.91;1054795;28;886;-60
2021/11/11 00:54:19;;;;;;;;;;;;;;;14.84;72.58;102081.53;1050624;28;892;-61
2021/11/11 00:55:10;;;;;;;;;;;;;;;14.83;73.01;102090.56;1050439;28;777;-61
2021/11/11 00:55:59;;;;;;;;;;;;;;;14.84;73.02;102078.84;1050528;28;1540;-60
2021/11/11 00:56:48;;;;;;;;;;;;;;;14.84;72.85;102078.84;1050656;28;861;-60
2021/11/11 00:57:36;;;;;;;;;;;;;;;14.85;72.87;102079.72;1050600;28;808;-61
2021/11/11 00:58:25;;;;;;;;;;;;;;;14.85;72.51;102080.59;1050571;28;912;-61
2021/11/11 00:59:14;;;;;;;;;;;;;;;14.85;72.95;102077.03;1050465;28;752;-61
2021/11/11 01:00:04;;;;;;;;;;;;;;;14.84;72.88;102076.19;1050516;28;1570;-61
2021/11/11 01:00:53;;;;;;;;;;;;;;;14.84;72.67;102076.19;1050352;28;1820;-61
2021/11/11 01:01:42;;;;;;;;;;;;;;;14.84;72.86;102078.84;1050619;28;843;-61
2021/11/11 01:02:33;;;;;;;;;;;;;;;14.84;73.05;102081.53;1050523;28;829;-61
2021/11/11 01:03:25;;;;;;;;;;;;;;;14.84;72.67;102083.38;1054527;28;890;-60
2021/11/11 01:04:14;;;;;;;;;;;;;;;14.85;72.48;102071.66;1050364;28;947;-60
2021/11/11 01:05:03;;;;;;;;;;;;;;;14.84;73.13;102083.38;1050528;28;718;-60
2021/11/11 01:05:52;;;;;;;;;;;;;;;14.84;72.59;102080.69;1051670;28;1365;-60
2021/11/11 01:06:40;;;;;;;;;;;;;;;14.83;72.97;102079.81;1054777;28;901;-60
2021/11/11 01:07:29;;;;;;;;;;;;;;;14.84;73.21;102076.19;1054649;28;792;-60
2021/11/11 01:08:19;;;;;;;;;;;;;;;14.83;73.35;102078.94;1050567;28;841;-61
2021/11/11 01:09:08;;;;;;;;;;;;;;;14.83;72.79;102074.44;1050430;28;1969;-60
2021/11/11 01:09:57;;;;;;;;;;;;;;;14.83;72.51;102077.13;1050486;28;703;-60
2021/11/11 01:10:45;;;;;;;;;;;;;;;14.83;72.57;102082.50;1050432;28;935;-61
2021/11/11 01:11:34;;;;;;;;;;;;;;;14.83;72.67;102078.94;1050477;28;810;-60
2021/11/11 01:12:23;;;;;;;;;;;;;;;14.83;72.73;102079.81;1050612;28;826;-60
2021/11/11 01:13:12;;;;;;;;;;;;;;;14.82;73.01;102078.09;1050554;28;742;-60
2021/11/11 01:14:02;;;;;;;;;;;;;;;14.82;72.59;102075.41;1049651;28;1457;-60
2021/11/11 01:14:51;;;;;;;;;;;;;;;14.83;72.61;102076.28;1050446;28;791;-60
2021/11/11 01:15:39;;;;;;;;;;;;;;;14.83;72.99;102081.63;1046056;28;810;-60
2021/11/11 01:16:28;;;;;;;;;;;;;;;14.83;72.84;102085.19;1045979;28;687;-61
2021/11/11 01:17:17;;;;;;;;;;;;;;;14.83;72.99;102081.63;1049525;28;865;-59
2021/11/11 01:18:06;;;;;;;;;;;;;;;14.82;72.88;102088.81;1050334;28;1646;-59
2021/11/11 01:18:55;;;;;;;;;;;;;;;14.83;72.38;102084.31;1050419;28;731;-60
2021/11/11 01:19:44;;;;;;;;;;;;;;;14.83;72.96;102076.28;1050496;28;1480;-60
2021/11/11 01:20:33;;;;;;;;;;;;;;;14.83;72.43;102085.19;1050522;28;800;-60
2021/11/11 01:21:22;;;;;;;;;;;;;;;14.83;72.90;102078.94;1046069;28;846;-60
2021/11/11 01:22:10;;;;;;;;;;;;;;;14.83;72.95;102085.19;1046015;28;1529;-59
2021/11/11 01:22:58;;;;;;;;;;;;;;;14.83;72.20;102090.56;1049536;28;685;-60
2021/11/11 01:23:47;;;;;;;;;;;;;;;14.82;72.84;102080.78;1050371;28;1363;-61
2021/11/11 01:24:36;;;;;;;;;;;;;;;14.82;72.58;102079.91;1050566;28;809;-60
2021/11/11 01:25:25;;;;;;;;;;;;;;;14.82;72.94;102083.47;1050449;28;873;-59
2021/11/11 01:26:14;;;;;;;;;;;;;;;14.82;72.92;102088.81;1050417;28;808;-60
2021/11/11 01:27:03;;;;;;;;;;;;;;;14.82;72.56;102085.28;1050473;28;759;-60
2021/11/11 01:27:52;;;;;;;;;;;;;;;14.81;72.36;102079.03;1050509;28;938;-59
2021/11/11 01:28:41;;;;;;;;;;;;;;;14.82;72.89;102082.59;1050553;28;803;-59
2021/11/11 01:29:30;;;;;;;;;;;;;;;14.82;72.50;102083.47;1054269;28;1928;-60
2021/11/11 01:30:19;;;;;;;;;;;;;;;14.82;72.28;102079.91;1050406;28;905;-59
2021/11/11 01:31:08;;;;;;;;;;;;;;;14.81;72.92;102070.13;1050433;28;757;-59
2021/11/11 01:31:56;;;;;;;;;;;;;;;14.80;72.92;102077.31;1050327;28;1534;-60
2021/11/11 01:32:46;;;;;;;;;;;;;;;14.80;73.00;102074.63;1050343;28;881;-60
2021/11/11 01:33:35;;;;;;;;;;;;;;;14.81;72.74;102071.00;1050421;28;901;-59
2021/11/11 01:34:27;;;;;;;;;;;;;;;14.81;72.48;102076.38;1050364;28;1327;-59
2021/11/11 01:35:16;;;;;;;;;;;;;;;14.82;72.45;102074.53;1050449;28;825;-60
2021/11/11 01:36:04;;;;;;;;;;;;;;;14.81;72.40;102070.13;1053451;28;1555;-60
2021/11/11 01:36:53;;;;;;;;;;;;;;;14.81;72.30;102064.75;1054501;28;880;-61
2021/11/11 01:37:44;;;;;;;;;;;;;;;14.81;72.89;102062.09;1054618;28;831;-60
2021/11/11 01:38:32;;;;;;;;;;;;;;;14.80;72.34;102069.28;1050384;28;826;-60
2021/11/11 01:39:21;;;;;;;;;;;;;;;14.81;72.89;102072.81;1050479;28;814;-60
2021/11/11 01:40:10;;;;;;;;;;;;;;;14.80;72.99;102063.91;1050260;28;1730;-60
2021/11/11 01:40:59;;;;;;;;;;;;;;;14.79;72.50;102062.19;1050399;28;895;-60
2021/11/11 01:41:48;;;;;;;;;;;;;;;14.79;72.57;102067.53;1050288;28;1377;-60
2021/11/11 01:42:37;;;;;;;;;;;;;;;14.80;72.79;102063.91;1050324;28;785;-60
2021/11/11 01:43:26;;;;;;;;;;;;;;;14.80;72.49;102063.91;1050321;28;802;-61
2021/11/11 01:44:15;;;;;;;;;;;;;;;14.80;72.38;102058.53;1050406;28;662;-61
2021/11/11 01:45:04;;;;;;;;;;;;;;;14.80;72.48;102058.53;1050267;28;1292;-61
2021/11/11 01:45:53;;;;;;;;;;;;;;;14.80;73.00;102063.03;1051883;28;1505;-61
2021/11/11 01:46:42;;;;;;;;;;;;;;;14.79;72.78;102062.19;1050795;28;1535;-61
2021/11/11 01:47:31;;;;;;;;;;;;;;;14.79;72.73;102054.13;1050274;28;786;-61
2021/11/11 01:48:20;;;;;;;;;;;;;;;14.80;72.72;102055.00;1050446;28;883;-61
2021/11/11 01:49:09;;;;;;;;;;;;;;;14.79;72.50;102056.81;1050184;28;1898;-61
2021/11/11 01:49:58;;;;;;;;;;;;;;;14.79;72.78;102056.81;1050743;28;1784;-61
2021/11/11 01:50:46;;;;;;;;;;;;;;;14.79;72.56;102054.13;1050426;28;875;-61
2021/11/11 01:51:36;;;;;;;;;;;;;;;14.80;72.87;102055.84;1050274;28;789;-60
2021/11/11 01:52:25;;;;;;;;;;;;;;;14.80;72.46;102058.53;1050276;28;914;-60
2021/11/11 01:53:14;;;;;;;;;;;;;;;14.80;72.84;102047.81;1050202;28;900;-61
2021/11/11 01:54:03;;;;;;;;;;;;;;;14.79;72.44;102045.22;1053129;28;1432;-60
2021/11/11 01:54:52;;;;;;;;;;;;;;;14.79;72.54;102051.44;1054441;28;971;-60
2021/11/11 01:55:41;;;;;;;;;;;;;;;14.79;72.66;102050.56;1054506;28;874;-60
2021/11/11 01:56:30;;;;;;;;;;;;;;;14.79;72.84;102056.81;1050313;28;899;-60
2021/11/11 01:57:18;;;;;;;;;;;;;;;14.80;73.02;102052.31;1050400;28;911;-60
2021/11/11 01:58:07;;;;;;;;;;;;;;;14.79;72.93;102042.53;1050165;28;1376;-60
2021/11/11 01:58:56;;;;;;;;;;;;;;;14.79;72.62;102039.84;1050251;28;735;-60
2021/11/11 01:59:45;;;;;;;;;;;;;;;14.79;73.29;102051.44;1050549;28;1394;-60
2021/11/11 02:00:34;;;;;;;;;;;;;;;14.79;72.50;102045.22;1054499;28;817;-60
2021/11/11 02:01:23;;;;;;;;;;;;;;;14.78;72.36;102049.72;1054602;28;829;-60
2021/11/11 02:02:12;;;;;;;;;;;;;;;14.79;72.65;102046.06;1050266;28;1679;-60
2021/11/11 02:03:01;;;;;;;;;;;;;;;14.79;72.70;102045.22;1050307;28;699;-60
2021/11/11 02:03:50;;;;;;;;;;;;;;;14.78;72.70;102044.34;1051217;28;1391;-60
2021/11/11 02:04:38;;;;;;;;;;;;;;;14.78;72.83;102043.47;1054517;28;609;-60
2021/11/11 02:05:27;;;;;;;;;;;;;;;14.78;72.33;102041.66;1054494;28;809;-60
2021/11/11 02:06:17;;;;;;;;;;;;;;;14.78;72.26;102044.34;1050285;28;753;-60
2021/11/11 02:07:06;;;;;;;;;;;;;;;14.78;73.02;102044.34;1050192;28;683;-60
2021/11/11 02:07:55;;;;;;;;;;;;;;;14.80;73.22;102036.19;1050232;28;1184;-60
2021/11/11 02:08:44;;;;;;;;;;;;;;;14.79;72.59;102046.06;1050239;28;820;-60
2021/11/11 02:09:33;;;;;;;;;;;;;;;14.78;73.06;102044.34;1050320;28;773;-60
2021/11/11 02:10:22;;;;;;;;;;;;;;;14.78;72.51;102038.97;1050289;28;829;-60
2021/11/11 02:11:11;;;;;;;;;;;;;;;14.78;72.85;102038.13;1050285;28;753;-60
2021/11/11 02:11:59;;;;;;;;;;;;;;;14.79;72.44;102034.47;1052638;28;1630;-61
2021/11/11 02:12:48;;;;;;;;;;;;;;;14.78;72.55;102041.66;1054500;28;841;-60
2021/11/11 02:13:37;;;;;;;;;;;;;;;14.78;72.62;102041.66;1054488;28;833;-60
2021/11/11 02:14:26;;;;;;;;;;;;;;;14.78;72.64;102038.13;1050109;28;940;-61
2021/11/11 02:15:15;;;;;;;;;;;;;;;14.78;72.57;102035.44;1050224;28;625;-60
2021/11/11 02:16:04;;;;;;;;;;;;;;;14.78;73.07;102032.75;1050132;28;1533;-60
2021/11/11 02:16:53;;;;;;;;;;;;;;;14.78;72.65;102033.63;1050166;28;648;-60
2021/11/11 02:17:42;;;;;;;;;;;;;;;14.78;73.04;102041.66;1050333;28;701;-60
2021/11/11 02:18:31;;;;;;;;;;;;;;;14.78;73.09;102036.28;1050270;28;743;-61
2021/11/11 02:19:19;;;;;;;;;;;;;;;14.77;72.33;102034.56;1050078;28;1465;-60
2021/11/11 02:20:10;;;;;;;;;;;;;;;14.78;72.53;102035.44;1050198;28;1624;-60
2021/11/11 02:21:00;;;;;;;;;;;;;;;14.77;72.73;102037.25;1050270;28;798;-61
2021/11/11 02:21:48;;;;;;;;;;;;;;;14.77;72.70;102044.44;1050110;28;1424;-60
2021/11/11 02:22:37;;;;;;;;;;;;;;;14.76;72.51;102035.53;1050164;28;752;-60
2021/11/11 02:23:26;;;;;;;;;;;;;;;14.77;73.01;102037.25;1050199;28;791;-60
2021/11/11 02:24:15;;;;;;;;;;;;;;;14.77;72.78;102042.63;1045847;28;830;-60
2021/11/11 02:25:04;;;;;;;;;;;;;;;14.78;73.41;102040.81;1045728;28;875;-60
2021/11/11 02:25:53;;;;;;;;;;;;;;;14.77;72.93;102037.25;1049290;28;1387;-60
2021/11/11 02:26:41;;;;;;;;;;;;;;;14.77;72.64;102031.88;1050093;28;1780;-60
2021/11/11 02:27:30;;;;;;;;;;;;;;;14.77;73.23;102034.56;1050160;28;818;-60
2021/11/11 02:28:19;;;;;;;;;;;;;;;14.76;72.72;102035.53;1050187;28;831;-60
2021/11/11 02:29:08;;;;;;;;;;;;;;;14.76;73.19;102034.66;1050057;28;1895;-62
2021/11/11 02:29:57;;;;;;;;;;;;;;;14.75;72.44;102023.06;1052225;28;1541;-62
2021/11/11 02:30:46;;;;;;;;;;;;;;;14.75;73.04;102027.56;1049889;28;849;-62
2021/11/11 02:31:35;;;;;;;;;;;;;;;14.76;72.64;102027.47;1049892;28;834;-62
2021/11/11 02:32:23;;;;;;;;;;;;;;;14.76;73.03;102029.31;1050089;28;900;-62
2021/11/11 02:33:12;;;;;;;;;;;;;;;14.76;73.39;102032.84;1045743;28;847;-63
2021/11/11 02:34:01;;;;;;;;;;;;;;;14.76;73.35;102030.16;1048305;28;1585;-63
2021/11/11 02:34:49;;;;;;;;;;;;;;;14.78;72.83;102032.75;1053542;28;719;-63
2021/11/11 02:35:38;;;;;;;;;;;;;;;14.77;72.95;102036.41;1054390;28;809;-63
2021/11/11 02:36:27;;;;;;;;;;;;;;;14.77;72.72;102029.19;1050132;28;856;-63
2021/11/11 02:37:17;;;;;;;;;;;;;;;14.77;72.82;102031.03;1050162;28;847;-63
2021/11/11 02:38:06;;;;;;;;;;;;;;;14.76;73.18;102034.66;1050077;28;1549;-63
2021/11/11 02:38:55;;;;;;;;;;;;;;;14.76;72.67;102029.31;1050091;28;678;-64
2021/11/11 02:39:44;;;;;;;;;;;;;;;14.77;73.56;102033.72;1050115;28;1347;-64
2021/11/11 02:40:32;;;;;;;;;;;;;;;14.77;72.70;102028.34;1050154;28;647;-64
2021/11/11 02:41:21;;;;;;;;;;;;;;;14.76;72.50;102030.16;1050124;28;854;-64
2021/11/11 02:42:10;;;;;;;;;;;;;;;14.75;72.90;102028.44;1054003;28;1675;-63
2021/11/11 02:42:59;;;;;;;;;;;;;;;14.76;73.24;102030.16;1049878;28;757;-63
2021/11/11 02:43:48;;;;;;;;;;;;;;;14.76;72.96;102029.31;1048969;28;1481;-63
2021/11/11 02:44:36;;;;;;;;;;;;;;;14.75;73.02;102033.81;1049097;28;741;-64
2021/11/11 02:45:25;;;;;;;;;;;;;;;14.75;72.74;102031.13;1049868;28;1373;-63
2021/11/11 02:46:14;;;;;;;;;;;;;;;14.75;72.96;102033.81;1050984;28;1801;-64
2021/11/11 02:47:03;;;;;;;;;;;;;;;14.76;72.80;102027.47;1050156;28;774;-63
2021/11/11 02:47:52;;;;;;;;;;;;;;;14.75;73.40;102031.13;1049942;28;1631;-64
2021/11/11 02:48:41;;;;;;;;;;;;;;;14.75;72.87;102031.13;1050160;28;916;-63
2021/11/11 02:49:30;;;;;;;;;;;;;;;14.76;73.31;102035.53;1049995;28;968;-63
2021/11/11 02:50:18;;;;;;;;;;;;;;;14.76;72.75;102035.53;1050196;28;908;-63
2021/11/11 02:51:08;;;;;;;;;;;;;;;14.76;72.78;102032.84;1050162;28;773;-64
2021/11/11 02:51:56;;;;;;;;;;;;;;;14.75;73.34;102028.44;1049980;28;1500;-64
2021/11/11 02:52:45;;;;;;;;;;;;;;;14.75;73.17;102032.94;1050181;28;897;-62
2021/11/11 02:53:34;;;;;;;;;;;;;;;14.75;72.95;102033.81;1050153;28;805;-63
2021/11/11 02:54:23;;;;;;;;;;;;;;;14.74;73.48;102021.34;1050071;28;831;-63
2021/11/11 02:55:12;;;;;;;;;;;;;;;14.77;72.86;102031.03;1050048;28;799;-62
2021/11/11 02:56:01;;;;;;;;;;;;;;;14.75;73.28;102030.25;1052626;28;1562;-63
2021/11/11 02:56:50;;;;;;;;;;;;;;;14.74;72.88;102024.03;1054334;28;708;-60
2021/11/11 02:57:39;;;;;;;;;;;;;;;14.74;72.85;102026.72;1054298;28;840;-60
2021/11/11 02:58:28;;;;;;;;;;;;;;;14.75;73.25;102022.22;1050107;28;893;-60
2021/11/11 02:59:16;;;;;;;;;;;;;;;14.75;73.22;102020.38;1050181;28;727;-60
2021/11/11 03:00:05;;;;;;;;;;;;;;;14.75;72.91;102014.16;1049991;28;1583;-60
2021/11/11 03:00:54;;;;;;;;;;;;;;;14.75;73.15;102031.13;1049937;28;1332;-60
2021/11/11 03:01:43;;;;;;;;;;;;;;;14.74;72.88;102026.72;1050088;28;1500;-60
2021/11/11 03:02:32;;;;;;;;;;;;;;;14.74;73.40;102018.66;1050171;28;827;-60
2021/11/11 03:03:21;;;;;;;;;;;;;;;14.75;72.84;102023.06;1050203;28;850;-60
2021/11/11 03:04:10;;;;;;;;;;;;;;;14.74;73.15;102032.06;1049924;28;1342;-60
2021/11/11 03:04:59;;;;;;;;;;;;;;;14.74;73.25;102024.03;1050088;28;795;-60
2021/11/11 03:05:48;;;;;;;;;;;;;;;14.75;72.80;102019.53;1050749;28;1489;-60
2021/11/11 03:06:36;;;;;;;;;;;;;;;14.74;72.63;102026.72;1054241;28;869;-61
2021/11/11 03:07:25;;;;;;;;;;;;;;;14.74;73.19;102024.03;1054201;28;920;-62
2021/11/11 03:08:14;;;;;;;;;;;;;;;14.74;73.33;102012.44;1050172;28;763;-62
2021/11/11 03:09:03;;;;;;;;;;;;;;;14.75;73.29;102023.06;1049942;28;1967;-62
2021/11/11 03:09:52;;;;;;;;;;;;;;;14.75;72.83;102016.84;1050040;28;1490;-62
2021/11/11 03:10:41;;;;;;;;;;;;;;;14.74;73.27;102021.34;1050040;28;859;-62
2021/11/11 03:11:30;;;;;;;;;;;;;;;14.74;73.25;102021.34;1050060;28;916;-62
2021/11/11 03:12:19;;;;;;;;;;;;;;;14.74;73.25;102017.81;1050155;28;896;-62
2021/11/11 03:13:08;;;;;;;;;;;;;;;14.74;73.03;102025.84;1050077;28;741;-62
2021/11/11 03:13:56;;;;;;;;;;;;;;;14.74;73.10;102018.66;1049990;28;1485;-62
2021/11/11 03:14:45;;;;;;;;;;;;;;;14.73;72.82;102019.63;1049990;28;861;-62
2021/11/11 03:15:34;;;;;;;;;;;;;;;14.73;73.64;102018.75;1049970;28;960;-62
2021/11/11 03:16:23;;;;;;;;;;;;;;;14.74;73.06;102021.34;1049966;28;818;-62
2021/11/11 03:17:12;;;;;;;;;;;;;;;14.73;73.60;102030.34;1049901;28;721;-63
2021/11/11 03:18:01;;;;;;;;;;;;;;;14.72;73.24;102019.72;1052676;28;1627;-62
2021/11/11 03:18:50;;;;;;;;;;;;;;;14.73;73.67;102024.97;1054220;28;933;-62
2021/11/11 03:19:39;;;;;;;;;;;;;;;14.73;73.10;102021.44;1054132;28;843;-63
2021/11/11 03:20:27;;;;;;;;;;;;;;;14.73;73.35;102034.84;1050144;28;776;-62
2021/11/11 03:21:16;;;;;;;;;;;;;;;14.71;72.79;102026.91;1049971;28;937;-62
2021/11/11 03:22:05;;;;;;;;;;;;;;;14.73;72.64;102029.50;1050055;28;1631;-62
2021/11/11 03:22:54;;;;;;;;;;;;;;;14.73;73.27;102033.03;1050075;28;891;-62
2021/11/11 03:23:43;;;;;;;;;;;;;;;14.73;72.79;102034.84;1049853;28;1377;-63
2021/11/11 03:24:32;;;;;;;;;;;;;;;14.72;73.25;102031.31;1050007;28;893;-62
2021/11/11 03:25:20;;;;;;;;;;;;;;;14.72;73.17;102031.31;1049944;28;900;-62
2021/11/11 03:26:09;;;;;;;;;;;;;;;14.72;73.34;102027.75;1049145;28;1585;-62
2021/11/11 03:26:58;;;;;;;;;;;;;;;14.72;72.91;102028.63;1049756;28;795;-62
2021/11/11 03:27:46;;;;;;;;;;;;;;;14.72;73.39;102027.75;1053265;28;899;-61
2021/11/11 03:28:35;;;;;;;;;;;;;;;14.72;72.91;102028.63;1054229;28;663;-62
2021/11/11 03:29:24;;;;;;;;;;;;;;;14.73;73.37;102024.13;1054088;28;2020;-61
2021/11/11 03:30:13;;;;;;;;;;;;;;;14.73;73.52;102033.03;1050086;28;758;-61
2021/11/11 03:31:02;;;;;;;;;;;;;;;14.72;73.55;102028.63;1050094;28;746;-62
2021/11/11 03:31:51;;;;;;;;;;;;;;;14.73;73.25;102024.13;1049979;28;1631;-62
2021/11/11 03:32:40;;;;;;;;;;;;;;;14.73;73.19;102030.34;1050037;28;806;-62
2021/11/11 03:33:29;;;;;;;;;;;;;;;14.72;73.29;102023.25;1049979;28;860;-62
2021/11/11 03:34:19;;;;;;;;;;;;;;;14.72;73.38;102025.09;1049969;28;1324;-62
2021/11/11 03:35:08;;;;;;;;;;;;;;;14.72;72.92;102022.41;1050013;28;794;-62
2021/11/11 03:35:57;;;;;;;;;;;;;;;14.73;72.86;102030.34;1049978;28;1413;-61
2021/11/11 03:36:46;;;;;;;;;;;;;;;14.73;73.05;102029.50;1050092;28;717;-62
2021/11/11 03:37:35;;;;;;;;;;;;;;;14.72;72.71;102025.09;1050770;28;768;-62
2021/11/11 03:38:24;;;;;;;;;;;;;;;14.72;72.93;102025.09;1050939;28;837;-62
2021/11/11 03:39:14;;;;;;;;;;;;;;;14.72;73.38;102023.25;1050872;28;790;-61
2021/11/11 03:40:03;;;;;;;;;;;;;;;14.72;72.94;102025.09;1050732;28;1544;-63
2021/11/11 03:40:52;;;;;;;;;;;;;;;14.72;73.54;102023.25;1050938;28;916;-62
2021/11/11 03:41:41;;;;;;;;;;;;;;;14.72;72.77;102031.31;1050814;28;809;-62
2021/11/11 03:42:30;;;;;;;;;;;;;;;14.72;73.32;102020.56;1050904;28;721;-62
2021/11/11 03:43:18;;;;;;;;;;;;;;;14.72;73.07;102023.25;1050953;28;857;-62
2021/11/11 03:44:07;;;;;;;;;;;;;;;14.72;73.03;102023.25;1054143;28;1440;-62
2021/11/11 03:44:56;;;;;;;;;;;;;;;14.72;73.35;102023.25;1050838;28;1608;-62
2021/11/11 03:45:45;;;;;;;;;;;;;;;14.73;73.10;102022.31;1053099;28;1841;-61
2021/11/11 03:46:34;;;;;;;;;;;;;;;14.72;73.05;102025.94;1053338;28;1442;-62
2021/11/11 03:47:23;;;;;;;;;;;;;;;14.72;73.35;102023.25;1051214;28;1892;-62
2021/11/11 03:48:12;;;;;;;;;;;;;;;14.72;73.17;102020.56;1050757;28;770;-62
2021/11/11 03:49:01;;;;;;;;;;;;;;;14.73;73.02;102026.81;1050728;28;1893;-62
2021/11/11 03:49:50;;;;;;;;;;;;;;;14.73;73.25;102024.97;1050764;28;1281;-62
2021/11/11 03:50:38;;;;;;;;;;;;;;;14.72;73.00;102025.94;1050906;28;855;-62
2021/11/11 03:51:28;;;;;;;;;;;;;;;14.72;73.28;102023.25;1050818;28;843;-62
2021/11/11 03:52:16;;;;;;;;;;;;;;;14.73;73.82;102027.66;1050595;28;822;-61
2021/11/11 03:53:05;;;;;;;;;;;;;;;14.72;73.81;102023.25;1050772;28;786;-61
2021/11/11 03:53:54;;;;;;;;;;;;;;;14.71;73.07;102026.91;1052398;28;1279;-60
2021/11/11 03:54:44;;;;;;;;;;;;;;;14.71;73.18;102032.25;1054882;28;672;-60
2021/11/11 03:55:32;;;;;;;;;;;;;;;14.70;73.48;102030.53;1054968;28;760;-61
2021/11/11 03:56:21;;;;;;;;;;;;;;;14.70;73.55;102027.84;1050813;28;891;-60
2021/11/11 03:57:10;;;;;;;;;;;;;;;14.71;73.39;102034.94;1050799;28;692;-60
2021/11/11 03:58:00;;;;;;;;;;;;;;;14.71;73.78;102037.63;1050713;28;1548;-61
2021/11/11 03:58:49;;;;;;;;;;;;;;;14.72;73.45;102039.34;1050697;28;876;-61
2021/11/11 03:59:38;;;;;;;;;;;;;;;14.73;73.57;102040.22;1050790;28;771;-61
2021/11/11 04:00:27;;;;;;;;;;;;;;;14.72;73.40;102047.41;1050896;28;861;-60
2021/11/11 04:01:15;;;;;;;;;;;;;;;14.72;73.47;102043.88;1050665;28;1147;-60
2021/11/11 04:02:05;;;;;;;;;;;;;;;14.71;73.18;102042.13;1050651;28;1402;-61
2021/11/11 04:02:53;;;;;;;;;;;;;;;14.70;73.38;102043.97;1050608;28;686;-61
2021/11/11 04:03:42;;;;;;;;;;;;;;;14.71;72.77;102048.38;1050800;28;1262;-61
2021/11/11 04:04:31;;;;;;;;;;;;;;;14.71;73.50;102043.00;1050617;28;985;-61
2021/11/11 04:05:20;;;;;;;;;;;;;;;14.72;73.05;102047.41;1050838;28;908;-61
2021/11/11 04:06:09;;;;;;;;;;;;;;;14.71;73.00;102047.50;1050665;28;1384;-61
2021/11/11 04:06:58;;;;;;;;;;;;;;;14.71;73.41;102050.19;1050680;28;859;-62
2021/11/11 04:07:47;;;;;;;;;;;;;;;14.71;73.50;102045.69;1050766;28;1134;-61
2021/11/11 04:08:35;;;;;;;;;;;;;;;14.71;72.81;102051.03;1050645;28;896;-62
2021/11/11 04:09:24;;;;;;;;;;;;;;;14.71;72.77;102047.50;1050723;28;1976;-61
2021/11/11 04:10:13;;;;;;;;;;;;;;;14.71;72.99;102055.56;1050581;28;766;-61
2021/11/11 04:11:02;;;;;;;;;;;;;;;14.71;73.17;102052.88;1050667;28;757;-62
2021/11/11 04:11:51;;;;;;;;;;;;;;;14.71;73.33;102053.72;1051895;28;1271;-62
2021/11/11 04:12:41;;;;;;;;;;;;;;;14.70;72.79;102054.69;1054135;28;1831;-62
2021/11/11 04:13:29;;;;;;;;;;;;;;;14.70;73.47;102052.00;1054854;28;751;-62
2021/11/11 04:14:18;;;;;;;;;;;;;;;14.70;73.62;102051.16;1050780;28;893;-61
2021/11/11 04:15:07;;;;;;;;;;;;;;;14.71;72.97;102052.88;1050632;28;766;-61
2021/11/11 04:15:56;;;;;;;;;;;;;;;14.71;72.87;102059.09;1050714;28;1250;-61
2021/11/11 04:16:45;;;;;;;;;;;;;;;14.70;72.99;102057.38;1050784;28;908;-61